createdAt,value
2022-12-18T00:02:16.418Z,41.30
2022-12-18T00:04:42.888Z,31.20
2022-12-18T00:07:09.347Z,32.22
2022-12-18T00:09:40.138Z,38.60
2022-12-18T00:14:45.189Z,35.40
2022-12-18T00:17:11.617Z,39.15
2022-12-18T00:19:38.080Z,38.08
2022-12-18T00:22:04.561Z,41.90
2022-12-18T00:24:31.090Z,35.55
2022-12-18T00:26:57.590Z,42.22
2022-12-18T00:29:24.083Z,37.25
2022-12-18T00:31:50.865Z,35.70
2022-12-18T00:34:17.403Z,38.67
2022-12-18T00:36:43.968Z,41.53
2022-12-18T00:39:13.006Z,36.97
2022-12-18T00:41:57.998Z,40.97
2022-12-18T00:44:25.684Z,38.85
2022-12-18T00:46:52.235Z,36.05
2022-12-18T00:49:20.567Z,29.92
2022-12-18T00:51:47.852Z,39.80
2022-12-18T00:54:14.793Z,35.80
2022-12-18T00:56:49.850Z,40.97
2022-12-18T00:59:19.012Z,36.58
2022-12-18T01:01:46.119Z,34.30
2022-12-18T01:04:12.724Z,41.05
2022-12-18T01:06:39.302Z,40.05
2022-12-18T01:09:07.051Z,41.97
2022-12-18T01:11:36.588Z,30.30
2022-12-18T01:14:04.933Z,36.88
2022-12-18T01:16:31.422Z,38.92
2022-12-18T01:18:58.059Z,40.70
2022-12-18T01:21:26.602Z,37.58
2022-12-18T01:23:55.172Z,33.03
2022-12-18T01:26:24.931Z,38.28
2022-12-18T01:28:51.834Z,42.60
2022-12-18T01:31:26.717Z,38.92
2022-12-18T01:33:56.015Z,38.08
2022-12-18T01:36:29.760Z,35.85
2022-12-18T01:38:56.820Z,31.55
2022-12-18T01:41:26.517Z,36.40
2022-12-18T01:43:57.871Z,38.92
2022-12-18T01:46:26.024Z,35.45
2022-12-18T01:49:02.208Z,29.92
2022-12-18T01:51:31.358Z,34.75
2022-12-18T01:53:59.639Z,37.45
2022-12-18T01:56:26.182Z,37.78
2022-12-18T01:59:07.494Z,46.47
2022-12-18T02:01:34.202Z,43.97
2022-12-18T02:04:22.966Z,36.10
2022-12-18T02:06:59.054Z,37.55
2022-12-18T02:09:35.379Z,37.58
2022-12-18T02:12:14.891Z,42.30
2022-12-18T02:14:59.927Z,28.58
2022-12-18T02:17:43.905Z,37.65
2022-12-18T02:20:26.471Z,37.42
2022-12-18T02:23:06.738Z,37.08
2022-12-18T02:26:03.221Z,43.05
2022-12-18T02:28:34.784Z,39.15
2022-12-18T02:31:09.077Z,39.45
2022-12-18T02:33:38.389Z,35.75
2022-12-18T02:36:06.798Z,41.10
2022-12-18T02:38:34.725Z,39.15
2022-12-18T02:41:08.474Z,38.38
2022-12-18T02:43:36.255Z,38.10
2022-12-18T02:46:37.743Z,38.40
2022-12-18T02:49:22.307Z,36.15
2022-12-18T02:51:54.382Z,31.65
2022-12-18T02:54:37.882Z,34.88
2022-12-18T02:57:23.421Z,34.75
2022-12-18T03:00:13.363Z,37.00
2022-12-18T03:02:48.616Z,31.67
2022-12-18T03:05:23.775Z,34.95
2022-12-18T03:08:04.131Z,39.10
2022-12-18T03:10:43.479Z,31.80
2022-12-18T03:13:14.452Z,40.88
2022-12-18T03:15:46.590Z,38.58
2022-12-18T03:18:22.883Z,41.38
2022-12-18T03:20:51.901Z,36.47
2022-12-18T03:23:26.490Z,32.25
2022-12-18T03:25:56.781Z,34.95
2022-12-18T03:28:28.304Z,28.83
2022-12-18T03:31:03.037Z,32.55
2022-12-18T03:33:41.850Z,35.58
2022-12-18T03:36:08.996Z,38.83
2022-12-18T03:38:35.848Z,36.50
2022-12-18T03:41:12.812Z,34.30
2022-12-18T03:44:13.351Z,35.10
2022-12-18T03:47:08.893Z,38.35
2022-12-18T03:49:44.441Z,33.25
2022-12-18T03:52:18.547Z,33.40
2022-12-18T03:54:47.136Z,41.13
2022-12-18T03:57:23.908Z,31.27
2022-12-18T04:00:05.573Z,34.08
2022-12-18T04:02:53.519Z,28.75
2022-12-18T04:05:28.134Z,32.20
2022-12-18T04:07:57.194Z,34.08
2022-12-18T04:10:23.866Z,28.60
2022-12-18T04:12:50.875Z,29.25
2022-12-18T04:15:17.565Z,32.78
2022-12-18T04:17:53.426Z,34.85
2022-12-18T04:20:23.392Z,27.48
2022-12-18T04:22:50.171Z,27.88
2022-12-18T04:25:19.357Z,23.98
2022-12-18T04:28:04.993Z,24.63
2022-12-18T04:30:32.002Z,33.58
2022-12-18T04:32:59.257Z,26.90
2022-12-18T04:35:26.050Z,23.63
2022-12-18T04:37:52.515Z,21.83
2022-12-18T04:40:19.097Z,25.52
2022-12-18T04:42:47.880Z,15.73
2022-12-18T04:45:14.637Z,24.60
2022-12-18T04:47:41.136Z,21.10
2022-12-18T04:50:08.001Z,21.38
2022-12-18T04:52:34.480Z,23.85
2022-12-18T04:55:01.000Z,22.40
2022-12-18T04:57:27.506Z,20.67
2022-12-18T04:59:53.906Z,27.40
2022-12-18T05:02:20.528Z,24.85
2022-12-18T05:04:47.097Z,18.77
2022-12-18T05:07:13.600Z,18.98
2022-12-18T05:09:40.033Z,21.33
2022-12-18T05:12:06.676Z,18.90
2022-12-18T05:14:33.199Z,18.23
2022-12-18T05:17:01.214Z,22.30
2022-12-18T05:19:27.929Z,20.25
2022-12-18T05:21:54.403Z,20.27
2022-12-18T05:24:20.872Z,16.92
2022-12-18T05:26:47.355Z,26.67
2022-12-18T05:29:14.187Z,18.05
2022-12-18T05:31:41.214Z,16.90
2022-12-18T05:34:09.474Z,20.00
2022-12-18T05:36:37.128Z,18.75
2022-12-18T05:39:04.138Z,15.23
2022-12-18T05:41:30.925Z,18.95
2022-12-18T05:43:57.691Z,21.05
2022-12-18T05:46:25.459Z,18.85
2022-12-18T05:48:52.118Z,16.17
2022-12-18T05:51:21.139Z,15.00
2022-12-18T05:53:48.195Z,27.98
2022-12-18T05:56:21.660Z,15.73
2022-12-18T05:58:51.510Z,17.95
2022-12-18T06:01:20.780Z,16.40
2022-12-18T06:03:47.883Z,18.00
2022-12-18T06:06:15.700Z,14.15
2022-12-18T06:08:46.180Z,17.83
2022-12-18T06:11:14.165Z,23.17
2022-12-18T06:13:40.935Z,19.75
2022-12-18T06:16:09.044Z,21.67
2022-12-18T06:18:39.058Z,18.75
2022-12-18T06:21:05.663Z,15.75
2022-12-18T06:23:32.126Z,21.33
2022-12-18T06:25:58.798Z,23.98
2022-12-18T06:28:25.467Z,18.48
2022-12-18T06:30:52.012Z,17.00
2022-12-18T06:33:18.606Z,22.02
2022-12-18T06:35:45.058Z,16.77
2022-12-18T06:38:11.657Z,18.90
2022-12-18T06:40:40.007Z,18.38
2022-12-18T06:43:07.147Z,18.15
2022-12-18T06:45:33.768Z,23.00
2022-12-18T06:48:00.388Z,17.73
2022-12-18T06:50:27.030Z,17.70
2022-12-18T06:52:53.446Z,14.95
2022-12-18T06:55:19.896Z,14.88
2022-12-18T06:57:46.313Z,20.20
2022-12-18T07:00:13.217Z,19.67
2022-12-18T07:02:39.994Z,15.30
2022-12-18T07:05:10.677Z,22.42
2022-12-18T07:07:37.978Z,23.17
2022-12-18T07:10:05.115Z,18.05
2022-12-18T07:12:31.572Z,13.43
2022-12-18T07:14:58.037Z,13.90
2022-12-18T07:17:24.734Z,18.73
2022-12-18T07:19:51.162Z,15.02
2022-12-18T07:22:17.659Z,17.85
2022-12-18T07:24:44.248Z,17.77
2022-12-18T07:27:10.659Z,17.77
2022-12-18T07:29:37.203Z,17.27
2022-12-18T07:32:04.736Z,19.27
2022-12-18T07:34:31.205Z,12.95
2022-12-18T07:36:57.707Z,20.02
2022-12-18T07:39:24.364Z,15.63
2022-12-18T07:42:10.816Z,18.17
2022-12-18T07:44:40.063Z,14.68
2022-12-18T07:47:10.481Z,16.08
2022-12-18T07:49:38.797Z,18.27
2022-12-18T07:52:05.327Z,15.90
2022-12-18T07:54:31.786Z,17.13
2022-12-18T07:56:58.347Z,16.63
2022-12-18T07:59:24.854Z,20.73
2022-12-18T08:01:51.384Z,14.52
2022-12-18T08:04:18.145Z,13.30
2022-12-18T08:06:47.762Z,16.23
2022-12-18T08:09:14.985Z,15.15
2022-12-18T08:11:41.419Z,16.00
2022-12-18T08:14:07.995Z,19.73
2022-12-18T08:16:34.999Z,19.90
2022-12-18T08:19:01.493Z,15.48
2022-12-18T08:21:30.604Z,15.35
2022-12-18T08:23:59.518Z,19.58
2022-12-18T08:26:29.003Z,17.08
2022-12-18T08:28:57.088Z,15.20
2022-12-18T08:31:24.513Z,18.42
2022-12-18T08:33:52.234Z,18.65
2022-12-18T08:36:19.315Z,18.77
2022-12-18T08:38:46.146Z,18.77
2022-12-18T08:41:15.786Z,19.58
2022-12-18T08:44:00.566Z,20.95
2022-12-18T08:46:32.484Z,20.83
2022-12-18T08:48:59.123Z,20.80
2022-12-18T08:51:25.647Z,20.52
2022-12-18T08:53:52.165Z,23.98
2022-12-18T08:56:18.770Z,26.40
2022-12-18T08:58:45.273Z,23.83
2022-12-18T09:01:13.731Z,22.48
2022-12-18T09:03:40.961Z,18.33
2022-12-18T09:06:08.217Z,19.77
2022-12-18T09:08:40.794Z,16.48
2022-12-18T09:11:13.755Z,16.35
2022-12-18T09:13:40.534Z,17.33
2022-12-18T09:16:09.814Z,19.00
2022-12-18T09:18:36.716Z,20.13
2022-12-18T09:21:20.833Z,21.58
2022-12-18T09:23:51.892Z,19.90
2022-12-18T09:26:18.544Z,20.65
2022-12-18T09:28:45.096Z,28.23
2022-12-18T09:31:16.655Z,20.90
2022-12-18T09:36:12.284Z,13.75
2022-12-18T09:38:39.206Z,19.02
2022-12-18T09:41:20.214Z,18.63
2022-12-18T09:43:51.760Z,23.42
2022-12-18T09:46:26.343Z,20.33
2022-12-18T09:48:55.515Z,17.17
2022-12-18T09:51:38.356Z,17.48
2022-12-18T09:54:11.627Z,16.63
2022-12-18T09:56:42.922Z,17.77
2022-12-18T09:59:25.021Z,14.73
2022-12-18T10:01:52.003Z,17.10
2022-12-18T10:04:19.625Z,17.85
2022-12-18T10:06:54.432Z,7.13
2022-12-18T10:09:47.231Z,18.52
2022-12-18T10:12:41.671Z,16.08
2022-12-18T10:15:19.369Z,14.45
2022-12-18T10:17:59.157Z,18.20
2022-12-18T10:20:34.136Z,16.25
2022-12-18T10:23:34.921Z,13.68
2022-12-18T10:26:07.201Z,17.83
2022-12-18T10:28:37.452Z,14.40
2022-12-18T10:31:07.108Z,12.82
2022-12-18T10:33:34.972Z,20.08
2022-12-18T10:36:01.725Z,19.33
2022-12-18T10:38:31.422Z,16.27
2022-12-18T10:41:04.487Z,18.35
2022-12-18T10:43:34.804Z,15.95
2022-12-18T10:46:10.389Z,19.33
2022-12-18T10:48:48.174Z,13.82
2022-12-18T10:53:54.221Z,14.80
2022-12-18T10:54:23.703Z,16.45
2022-12-18T10:56:50.600Z,20.67
2022-12-18T10:59:18.992Z,12.02
2022-12-18T11:01:55.701Z,14.48
2022-12-18T11:04:23.764Z,13.85
2022-12-18T11:07:11.174Z,18.58
2022-12-18T11:09:40.282Z,16.80
2022-12-18T11:12:18.882Z,13.82
2022-12-18T11:15:00.568Z,14.35
2022-12-18T11:17:32.730Z,11.95
2022-12-18T11:20:00.958Z,13.73
2022-12-18T11:22:28.926Z,13.90
2022-12-18T11:25:32.741Z,11.95
2022-12-18T11:27:56.935Z,14.57
2022-12-18T11:30:38.996Z,16.27
2022-12-18T11:33:21.649Z,17.40
2022-12-18T11:35:55.111Z,14.52
2022-12-18T11:38:25.244Z,15.32
2022-12-18T11:40:58.473Z,17.58
2022-12-18T11:43:49.430Z,14.43
2022-12-18T11:46:24.272Z,15.93
2022-12-18T11:48:59.786Z,11.85
2022-12-18T11:51:38.990Z,14.30
2022-12-18T11:54:16.332Z,15.65
2022-12-18T11:57:12.334Z,20.05
2022-12-18T11:59:59.654Z,16.02
2022-12-18T12:03:00.271Z,16.30
2022-12-18T12:05:50.995Z,11.88
2022-12-18T12:08:35.697Z,16.38
2022-12-18T12:11:26.300Z,12.48
2022-12-18T12:14:20.700Z,13.75
2022-12-18T12:17:07.752Z,12.95
2022-12-18T12:20:00.140Z,14.25
2022-12-18T12:22:44.066Z,13.77
2022-12-18T12:25:34.345Z,15.07
2022-12-18T12:28:15.878Z,14.68
2022-12-18T12:31:08.644Z,13.43
2022-12-18T12:33:45.390Z,14.77
2022-12-18T12:36:20.828Z,15.75
2022-12-18T12:38:52.879Z,12.23
2022-12-18T12:41:44.593Z,13.80
2022-12-18T12:44:19.178Z,14.70
2022-12-18T12:46:47.217Z,13.52
2022-12-18T12:49:23.097Z,13.73
2022-12-18T12:52:18.684Z,17.73
2022-12-18T12:54:46.445Z,12.35
2022-12-18T12:57:28.158Z,14.70
2022-12-18T12:59:57.751Z,16.65
2022-12-18T13:02:43.295Z,18.73
2022-12-18T13:05:21.090Z,14.98
2022-12-18T13:07:54.221Z,15.75
2022-12-18T13:10:32.194Z,16.35
2022-12-18T13:13:13.397Z,17.35
2022-12-18T13:15:44.761Z,16.42
2022-12-18T13:18:17.741Z,17.27
2022-12-18T13:21:02.978Z,17.13
2022-12-18T13:23:34.541Z,19.25
2022-12-18T13:26:07.121Z,17.15
2022-12-18T13:28:33.461Z,12.30
2022-12-18T13:31:02.104Z,12.65
2022-12-18T13:33:34.615Z,16.52
2022-12-18T13:36:36.501Z,22.63
2022-12-18T13:41:39.068Z,12.65
2022-12-18T13:44:41.499Z,19.20
2022-12-18T13:47:31.984Z,26.55
2022-12-18T13:49:59.383Z,33.47
2022-12-18T13:52:29.666Z,23.75
2022-12-18T13:54:58.967Z,20.35
2022-12-18T13:57:36.668Z,26.63
2022-12-18T14:00:29.451Z,34.05
2022-12-18T14:02:57.985Z,26.25
2022-12-18T14:05:30.673Z,24.98
2022-12-18T14:08:11.519Z,17.33
2022-12-18T14:13:28.853Z,15.98
2022-12-18T14:15:56.960Z,17.23
2022-12-18T14:18:37.208Z,18.80
2022-12-18T14:21:05.352Z,16.13
2022-12-18T14:23:36.346Z,16.33
2022-12-18T14:26:19.058Z,18.20
2022-12-18T14:28:45.657Z,18.00
2022-12-18T14:31:24.384Z,17.80
2022-12-18T14:33:52.958Z,17.73
2022-12-18T14:36:28.078Z,20.92
2022-12-18T14:38:59.267Z,23.20
2022-12-18T14:41:26.863Z,19.15
2022-12-18T14:43:55.061Z,19.08
2022-12-18T14:46:36.297Z,21.30
2022-12-18T14:49:06.434Z,17.77
2022-12-18T14:51:34.969Z,20.02
2022-12-18T14:54:04.961Z,17.33
2022-12-18T14:56:34.718Z,18.42
2022-12-18T14:59:04.639Z,20.63
2022-12-18T15:01:38.246Z,15.52
2022-12-18T15:04:24.155Z,19.88
2022-12-18T15:07:12.212Z,23.63
2022-12-18T15:09:41.361Z,17.77
2022-12-18T15:12:29.994Z,17.90
2022-12-18T15:14:56.506Z,16.75
2022-12-18T15:17:26.115Z,17.85
2022-12-18T15:20:01.407Z,18.83
2022-12-18T15:22:30.599Z,16.85
2022-12-18T15:24:59.003Z,14.93
2022-12-18T15:27:36.624Z,15.45
2022-12-18T15:30:19.194Z,18.42
2022-12-18T15:32:46.235Z,18.42
2022-12-18T15:35:22.983Z,19.30
2022-12-18T15:37:51.162Z,15.05
2022-12-18T15:40:22.859Z,18.67
2022-12-18T15:43:11.029Z,14.50
2022-12-18T15:45:37.586Z,19.45
2022-12-18T15:48:31.002Z,18.10
2022-12-18T15:50:59.331Z,17.70
2022-12-18T15:53:30.410Z,19.77
2022-12-18T15:56:15.240Z,21.52
2022-12-18T15:58:41.712Z,17.95
2022-12-18T16:01:10.515Z,20.63
2022-12-18T16:03:37.248Z,19.58
2022-12-18T16:06:04.196Z,21.08
2022-12-18T16:08:31.170Z,22.25
2022-12-18T16:10:59.185Z,24.23
2022-12-18T16:13:25.701Z,20.70
2022-12-18T16:15:52.257Z,18.27
2022-12-18T16:18:18.743Z,17.15
2022-12-18T16:20:45.150Z,22.77
2022-12-18T16:23:11.653Z,21.02
2022-12-18T16:25:38.167Z,21.75
2022-12-18T16:28:05.574Z,20.23
2022-12-18T16:30:38.377Z,22.60
2022-12-18T16:33:07.487Z,20.15
2022-12-18T16:35:35.212Z,18.98
2022-12-18T16:38:01.733Z,16.23
2022-12-18T16:40:28.556Z,15.70
2022-12-18T16:42:54.949Z,19.10
2022-12-18T16:45:21.430Z,15.13
2022-12-18T16:47:48.011Z,18.45
2022-12-18T16:50:14.843Z,18.60
2022-12-18T16:52:41.695Z,18.08
2022-12-18T16:55:08.667Z,22.52
2022-12-18T16:57:35.306Z,20.40
2022-12-18T17:00:05.519Z,14.32
2022-12-18T17:02:32.967Z,17.90
2022-12-18T17:04:59.781Z,23.42
2022-12-18T17:07:27.607Z,19.52
2022-12-18T17:09:54.810Z,22.17
2022-12-18T17:12:21.671Z,29.40
2022-12-18T17:14:48.268Z,17.75
2022-12-18T17:17:23.734Z,23.23
2022-12-18T17:19:52.238Z,18.27
2022-12-18T17:22:19.660Z,22.67
2022-12-18T17:24:47.018Z,25.50
2022-12-18T17:27:14.024Z,19.33
2022-12-18T17:29:46.755Z,23.45
2022-12-18T17:32:14.876Z,18.60
2022-12-18T17:34:41.363Z,20.25
2022-12-18T17:37:09.417Z,25.38
2022-12-18T17:39:36.754Z,22.50
2022-12-18T17:42:03.839Z,21.40
2022-12-18T17:44:31.735Z,20.17
2022-12-18T17:46:58.173Z,23.77
2022-12-18T17:49:24.777Z,20.40
2022-12-18T17:51:51.616Z,23.55
2022-12-18T17:54:18.079Z,27.08
2022-12-18T17:56:44.663Z,23.75
2022-12-18T17:59:12.429Z,21.48
2022-12-18T18:01:44.492Z,24.73
2022-12-18T18:04:12.425Z,24.27
2022-12-18T18:06:39.556Z,25.17
2022-12-18T18:09:09.942Z,26.40
2022-12-18T18:12:03.278Z,23.98
2022-12-18T18:14:30.186Z,27.27
2022-12-18T18:16:56.898Z,22.52
2022-12-18T18:19:27.230Z,23.20
2022-12-18T18:21:53.912Z,23.33
2022-12-18T18:24:25.906Z,23.65
2022-12-18T18:26:52.566Z,26.17
2022-12-18T18:29:23.587Z,25.88
2022-12-18T18:31:52.381Z,22.60
2022-12-18T18:34:22.406Z,20.13
2022-12-18T18:36:48.929Z,22.40
2022-12-18T18:39:15.661Z,25.77
2022-12-18T18:41:42.268Z,20.98
2022-12-18T18:44:12.030Z,20.50
2022-12-18T18:46:38.539Z,27.05
2022-12-18T18:49:05.672Z,25.52
2022-12-18T18:51:35.105Z,25.48
2022-12-18T18:54:01.938Z,21.77
2022-12-18T18:59:15.164Z,24.25
2022-12-18T19:01:41.891Z,24.80
2022-12-18T19:04:08.777Z,21.92
2022-12-18T19:06:35.279Z,24.55
2022-12-18T19:09:04.328Z,22.13
2022-12-18T19:11:49.461Z,25.55
2022-12-18T19:14:16.690Z,24.23
2022-12-18T19:16:45.442Z,24.02
2022-12-18T19:19:14.171Z,22.52
2022-12-18T19:21:40.913Z,23.80
2022-12-18T19:24:07.819Z,26.45
2022-12-18T19:26:39.814Z,23.17
2022-12-18T19:29:08.310Z,23.17
2022-12-18T19:31:36.948Z,26.35
2022-12-18T19:34:06.488Z,18.45
2022-12-18T19:36:33.899Z,25.88
2022-12-18T19:39:01.654Z,25.23
2022-12-18T19:41:31.382Z,24.55
2022-12-18T19:44:00.011Z,27.95
2022-12-18T19:46:28.668Z,27.58
2022-12-18T19:48:55.330Z,32.05
2022-12-18T19:51:26.113Z,21.27
2022-12-18T19:53:58.168Z,26.05
2022-12-18T19:56:28.065Z,23.95
2022-12-18T19:58:54.585Z,19.52
2022-12-18T20:01:23.172Z,24.40
2022-12-18T20:03:52.246Z,21.13
2022-12-18T20:06:32.787Z,25.33
2022-12-18T20:09:02.923Z,18.70
2022-12-18T20:11:30.898Z,24.95
2022-12-18T20:14:01.229Z,31.15
2022-12-18T20:16:28.051Z,28.65
2022-12-18T20:18:54.862Z,24.35
2022-12-18T20:21:21.363Z,24.45
2022-12-18T20:23:48.060Z,25.33
2022-12-18T20:26:14.770Z,26.52
2022-12-18T20:28:42.217Z,23.05
2022-12-18T20:31:10.476Z,26.77
2022-12-18T20:33:38.642Z,23.25
2022-12-18T20:36:15.677Z,26.45
2022-12-18T20:38:43.605Z,22.10
2022-12-18T20:41:16.497Z,20.58
2022-12-18T20:43:43.932Z,20.23
2022-12-18T20:46:13.520Z,25.05
2022-12-18T20:48:40.638Z,25.05
2022-12-18T20:51:12.970Z,25.83
2022-12-18T20:53:41.726Z,24.23
2022-12-18T20:56:22.333Z,29.13
2022-12-18T20:58:50.326Z,26.80
2022-12-18T21:01:20.677Z,22.92
2022-12-18T21:03:48.070Z,26.73
2022-12-18T21:06:17.190Z,25.02
2022-12-18T21:08:44.062Z,25.40
2022-12-18T21:11:38.773Z,29.95
2022-12-18T21:14:29.418Z,23.83
2022-12-18T21:16:56.636Z,24.50
2022-12-18T21:19:27.018Z,27.20
2022-12-18T21:21:55.148Z,25.30
2022-12-18T21:24:22.019Z,23.38
2022-12-18T21:26:49.307Z,35.20
2022-12-18T21:29:21.791Z,27.40
2022-12-18T21:31:49.298Z,24.48
2022-12-18T21:34:19.382Z,18.90
2022-12-18T21:36:46.435Z,24.88
2022-12-18T21:39:14.507Z,24.58
2022-12-18T21:41:59.687Z,26.35
2022-12-18T21:44:26.542Z,18.80
2022-12-18T21:46:56.970Z,24.20
2022-12-18T21:49:27.011Z,24.50
2022-12-18T21:51:56.050Z,23.20
2022-12-18T21:54:23.327Z,23.20
2022-12-18T21:57:00.031Z,29.15
2022-12-18T21:59:28.001Z,22.63
2022-12-18T22:01:57.270Z,26.95
2022-12-18T22:04:25.257Z,30.27
2022-12-18T22:06:52.995Z,28.95
2022-12-18T22:09:22.599Z,20.42
2022-12-18T22:11:50.303Z,25.67
2022-12-18T22:14:19.997Z,26.52
2022-12-18T22:16:47.365Z,26.95
2022-12-18T22:19:14.880Z,32.95
2022-12-18T22:21:43.869Z,22.88
2022-12-18T22:24:24.265Z,26.53
2022-12-18T22:26:53.030Z,22.17
2022-12-18T22:29:42.887Z,24.38
2022-12-18T22:32:12.951Z,21.88
2022-12-18T22:34:41.705Z,24.10
2022-12-18T22:37:10.552Z,22.33
2022-12-18T22:39:37.027Z,26.48
2022-12-18T22:42:05.053Z,30.92
2022-12-18T22:44:31.474Z,23.30
2022-12-18T22:47:06.640Z,30.60
2022-12-18T22:49:35.690Z,20.98
2022-12-18T22:52:09.362Z,25.27
2022-12-18T22:54:36.169Z,27.73
2022-12-18T22:57:02.646Z,29.75
2022-12-18T22:59:29.709Z,19.75
2022-12-18T23:01:59.239Z,24.45
2022-12-18T23:04:29.285Z,29.88
2022-12-18T23:07:02.590Z,23.17
2022-12-18T23:09:29.086Z,23.88
2022-12-18T23:11:55.553Z,26.27
2022-12-18T23:14:21.947Z,26.08
2022-12-18T23:16:48.909Z,26.75
2022-12-18T23:19:17.226Z,24.15
2022-12-18T23:21:43.755Z,29.00
2022-12-18T23:24:10.670Z,28.77
2022-12-18T23:26:37.270Z,23.02
2022-12-18T23:29:04.558Z,29.83
2022-12-18T23:31:34.033Z,27.58
2022-12-18T23:34:02.001Z,24.55
2022-12-18T23:36:29.068Z,24.00
2022-12-18T23:38:59.086Z,30.17
2022-12-18T23:41:28.560Z,28.50
2022-12-18T23:43:55.077Z,24.58
2022-12-18T23:46:31.193Z,30.30
2022-12-18T23:49:00.760Z,24.73
2022-12-18T23:51:28.319Z,32.50
2022-12-18T23:53:57.486Z,27.50
2022-12-18T23:56:25.514Z,24.83
2022-12-18T23:58:52.872Z,31.70
